Time;durP1;ratioP1;P1;durP2;ratioP2;P2;SDS_P1;SDS_P2;PMS_P1;PMS_P2;Temp;Humidity;BMP_temperature;BMP_pressure;BME280_temperature;BME280_humidity;BME280_pressure;Samples;Min_cycle;Max_cycle;Signal;HPM_P1;HPM_P2
2022/09/20 00:01:09;;;;;;;7.95;2.80;;;;;;;;;;5028864;28;20659;-65
2022/09/20 00:03:39;;;;;;;11.55;3.22;;;;;;;;;;5035252;28;20048;-65
2022/09/20 00:06:06;;;;;;;8.27;3.03;;;;;;;;;;5010344;28;20816;-65
2022/09/20 00:08:33;;;;;;;10.07;3.38;;;;;;;;;;5014455;28;20565;-66
2022/09/20 00:11:03;;;;;;;8.55;3.15;;;;;;;;;;5034706;28;20033;-65
2022/09/20 00:13:29;;;;;;;10.05;3.05;;;;;;;;;;5036983;28;20387;-65
2022/09/20 00:15:56;;;;;;;7.95;2.80;;;;;;;;;;5029992;28;20037;-62
2022/09/20 00:18:22;;;;;;;7.20;2.17;;;;;;;;;;5032286;28;20041;-62
2022/09/20 00:20:50;;;;;;;8.77;3.00;;;;;;;;;;5040198;28;20159;-64
2022/09/20 00:23:16;;;;;;;8.25;2.63;;;;;;;;;;5029561;28;20037;-65
2022/09/20 00:25:42;;;;;;;;;;;;;;;;;;5019681;28;20029;-65
2022/09/20 00:28:09;;;;;;;8.60;2.53;;;;;;;;;;5026283;28;19963;-65
2022/09/20 00:30:35;;;;;;;8.63;2.42;;;;;;;;;;5032175;28;20037;-65
2022/09/20 00:33:02;;;;;;;7.90;2.50;;;;;;;;;;5029382;28;20722;-65
2022/09/20 00:35:29;;;;;;;6.65;2.55;;;;;;;;;;5031005;28;20056;-65
2022/09/20 00:37:56;;;;;;;7.97;2.80;;;;;;;;;;5031450;28;20036;-65
2022/09/20 00:40:25;;;;;;;8.15;3.05;;;;;;;;;;5014684;28;20529;-65
2022/09/20 00:42:51;;;;;;;7.10;2.75;;;;;;;;;;5019307;28;20045;-65
2022/09/20 00:45:17;;;;;;;;;;;;;;;;;;5030944;28;20573;-65
2022/09/20 00:47:47;;;;;;;6.50;2.25;;;;;;;;;;5037822;28;20472;-65
2022/09/20 00:50:13;;;;;;;7.47;2.50;;;;;;;;;;5030994;28;20035;-65
2022/09/20 00:52:39;;;;;;;;;;;;;;;;;;5029478;28;20033;-65
2022/09/20 00:55:07;;;;;;;8.23;2.60;;;;;;;;;;5027672;28;19913;-65
2022/09/20 00:57:37;;;;;;;7.70;2.55;;;;;;;;;;5019935;28;20029;-65
2022/09/20 01:00:08;;;;;;;7.57;2.25;;;;;;;;;;5016552;28;20032;-66
2022/09/20 01:02:37;;;;;;;6.55;2.30;;;;;;;;;;5029858;28;20053;-65
2022/09/20 01:05:03;;;;;;;6.47;2.45;;;;;;;;;;5031698;28;20032;-66
2022/09/20 01:07:29;;;;;;;7.03;2.30;;;;;;;;;;5031930;28;20037;-66
2022/09/20 01:09:56;;;;;;;;;;;;;;;;;;5033129;28;20460;-65
2022/09/20 01:12:25;;;;;;;8.67;2.60;;;;;;;;;;5029466;28;19923;-66
2022/09/20 01:14:52;;;;;;;7.00;2.50;;;;;;;;;;5042620;28;20028;-63
2022/09/20 01:17:19;;;;;;;5.78;2.03;;;;;;;;;;5038975;28;20029;-63
2022/09/20 01:19:45;;;;;;;7.63;2.53;;;;;;;;;;5036828;28;20112;-63
2022/09/20 01:22:25;;;;;;;7.32;2.40;;;;;;;;;;5010221;28;20388;-63
2022/09/20 01:25:06;;;;;;;6.53;2.40;;;;;;;;;;5032026;28;20292;-64
2022/09/20 01:27:46;;;;;;;7.57;2.38;;;;;;;;;;5032214;28;20627;-63
2022/09/20 01:30:20;;;;;;;8.07;2.60;;;;;;;;;;5028011;28;20074;-62
2022/09/20 01:33:00;;;;;;;8.27;2.70;;;;;;;;;;5033531;28;20086;-62
2022/09/20 01:35:27;;;;;;;7.95;2.53;;;;;;;;;;5018568;28;20319;-63
2022/09/20 01:38:12;;;;;;;6.68;2.50;;;;;;;;;;5021057;28;20154;-62
2022/09/20 01:40:45;;;;;;;8.38;2.80;;;;;;;;;;5030594;28;20041;-65
2022/09/20 01:43:29;;;;;;;7.40;2.40;;;;;;;;;;5029292;28;20478;-65
2022/09/20 01:45:57;;;;;;;8.00;2.55;;;;;;;;;;5014874;28;20400;-66
2022/09/20 01:48:37;;;;;;;7.72;2.90;;;;;;;;;;5029175;28;20028;-64
2022/09/20 01:51:19;;;;;;;7.15;2.40;;;;;;;;;;5028452;28;20099;-64
2022/09/20 01:54:09;;;;;;;9.98;2.78;;;;;;;;;;5032130;28;20461;-65
2022/09/20 01:56:53;;;;;;;6.38;2.30;;;;;;;;;;4968022;28;20116;-65
2022/09/20 01:59:20;;;;;;;6.82;2.55;;;;;;;;;;4966148;28;20463;-65
2022/09/20 02:02:04;;;;;;;8.23;2.70;;;;;;;;;;4970421;28;20133;-65
2022/09/20 02:04:42;;;;;;;7.05;2.70;;;;;;;;;;4970636;28;20124;-65
2022/09/20 02:07:11;;;;;;;8.15;2.83;;;;;;;;;;4962259;28;20042;-65
2022/09/20 02:10:00;;;;;;;7.00;2.50;;;;;;;;;;4972568;28;20370;-67
2022/09/20 02:12:32;;;;;;;7.82;2.53;;;;;;;;;;4964191;28;20729;-66
2022/09/20 02:15:13;;;;;;;7.28;2.45;;;;;;;;;;4968723;28;20219;-65
2022/09/20 02:17:45;;;;;;;8.77;2.28;;;;;;;;;;4973858;28;20030;-66
2022/09/20 02:20:11;;;;;;;6.30;2.28;;;;;;;;;;4966977;28;20068;-65
2022/09/20 02:22:43;;;;;;;7.65;2.50;;;;;;;;;;4966230;28;20030;-65
2022/09/20 02:25:19;;;;;;;7.68;2.30;;;;;;;;;;4966840;28;20366;-64
2022/09/20 02:27:54;;;;;;;7.22;2.42;;;;;;;;;;4967887;28;20136;-65
2022/09/20 02:30:45;;;;;;;6.32;2.13;;;;;;;;;;4967688;28;20098;-67
2022/09/20 02:33:14;;;;;;;7.95;2.50;;;;;;;;;;4984104;28;20124;-64
2022/09/20 02:35:46;;;;;;;7.38;2.40;;;;;;;;;;5040883;28;20020;-65
2022/09/20 02:38:28;;;;;;;6.82;2.72;;;;;;;;;;5018012;28;20024;-64
2022/09/20 02:41:03;;;;;;;7.65;2.65;;;;;;;;;;5021188;28;20034;-65
2022/09/20 02:43:30;;;;;;;7.25;2.67;;;;;;;;;;5036719;28;20032;-64
2022/09/20 02:46:19;;;;;;;7.38;2.45;;;;;;;;;;5031067;28;20066;-64
2022/09/20 02:48:50;;;;;;;7.13;2.33;;;;;;;;;;4945029;28;20309;-67
2022/09/20 02:51:24;;;;;;;5.85;2.38;;;;;;;;;;4942171;28;20461;-63
2022/09/20 02:53:53;;;;;;;7.20;2.38;;;;;;;;;;4917824;28;20059;-63
2022/09/20 02:56:38;;;;;;;6.63;2.20;;;;;;;;;;4932874;28;20039;-66
2022/09/20 02:59:09;;;;;;;7.22;2.25;;;;;;;;;;4947058;28;20552;-63
2022/09/20 03:01:43;;;;;;;6.38;2.10;;;;;;;;;;4952522;28;20079;-63
2022/09/20 03:04:28;;;;;;;6.95;2.10;;;;;;;;;;4943287;28;20509;-63
2022/09/20 03:07:12;;;;;;;6.72;2.50;;;;;;;;;;4947196;28;20174;-64
2022/09/20 03:09:52;;;;;;;6.82;2.20;;;;;;;;;;4939001;28;20031;-64
2022/09/20 03:12:26;;;;;;;7.40;2.58;;;;;;;;;;4933045;28;20098;-63
2022/09/20 03:15:13;;;;;;;6.95;2.22;;;;;;;;;;4946364;28;20045;-63
2022/09/20 03:17:52;;;;;;;6.60;2.08;;;;;;;;;;4952613;28;20126;-63
2022/09/20 03:20:28;;;;;;;6.03;2.17;;;;;;;;;;4945680;28;20661;-64
2022/09/20 03:22:56;;;;;;;6.35;2.20;;;;;;;;;;4955443;28;20550;-63
2022/09/20 03:25:29;;;;;;;6.13;2.30;;;;;;;;;;4978722;28;20053;-63
2022/09/20 03:28:14;;;;;;;8.02;2.22;;;;;;;;;;5021208;28;20031;-62
2022/09/20 03:30:55;;;;;;;6.47;2.38;;;;;;;;;;5040179;28;20475;-64
2022/09/20 03:33:27;;;;;;;7.35;2.33;;;;;;;;;;5027296;28;21739;-65
2022/09/20 03:36:12;;;;;;;6.50;2.10;;;;;;;;;;5041567;28;20051;-65
2022/09/20 03:38:57;;;;;;;6.68;2.42;;;;;;;;;;5037208;28;20057;-62
2022/09/20 03:41:29;;;;;;;6.20;2.05;;;;;;;;;;5011010;28;20195;-62
2022/09/20 03:44:14;;;;;;;8.60;2.15;;;;;;;;;;5030796;28;20081;-62
2022/09/20 03:46:47;;;;;;;7.03;2.00;;;;;;;;;;5030817;28;20112;-62
2022/09/20 03:49:25;;;;;;;8.70;2.58;;;;;;;;;;5031320;28;20085;-62
2022/09/20 03:51:54;;;;;;;6.35;2.10;;;;;;;;;;5015412;28;20021;-62
2022/09/20 03:54:39;;;;;;;9.40;2.40;;;;;;;;;;5032476;28;20340;-62
2022/09/20 03:57:24;;;;;;;7.03;2.10;;;;;;;;;;5034444;28;20101;-65
2022/09/20 04:00:02;;;;;;;7.18;2.25;;;;;;;;;;5040653;28;20447;-62
2022/09/20 04:02:47;;;;;;;6.55;2.22;;;;;;;;;;5033200;28;20383;-62
2022/09/20 04:05:26;;;;;;;6.95;2.25;;;;;;;;;;5013445;28;20048;-63
2022/09/20 04:08:12;;;;;;;5.97;2.33;;;;;;;;;;5032056;28;20028;-63
2022/09/20 04:10:58;;;;;;;6.55;2.30;;;;;;;;;;5035214;28;20025;-64
2022/09/20 04:13:33;;;;;;;6.10;2.35;;;;;;;;;;5035737;28;20025;-63
2022/09/20 04:16:18;;;;;;;6.40;2.20;;;;;;;;;;5034789;28;20043;-64
2022/09/20 04:18:47;;;;;;;6.25;2.22;;;;;;;;;;5034851;28;20045;-63
2022/09/20 04:21:18;;;;;;;7.00;2.38;;;;;;;;;;5030115;28;20033;-64
2022/09/20 04:23:56;;;;;;;7.50;2.85;;;;;;;;;;5030316;28;20027;-63
2022/09/20 04:26:27;;;;;;;7.63;2.38;;;;;;;;;;5027996;28;20041;-64
2022/09/20 04:29:00;;;;;;;6.80;2.53;;;;;;;;;;5030773;28;20692;-64
2022/09/20 04:31:26;;;;;;;7.90;2.60;;;;;;;;;;5033867;28;20127;-64
2022/09/20 04:33:54;;;;;;;7.63;2.35;;;;;;;;;;5034531;28;20119;-64
2022/09/20 04:36:29;;;;;;;7.35;2.45;;;;;;;;;;5030363;28;20509;-65
2022/09/20 04:39:14;;;;;;;9.25;2.85;;;;;;;;;;5016852;28;20037;-66
2022/09/20 04:41:59;;;;;;;6.80;2.30;;;;;;;;;;5013293;28;20540;-65
2022/09/20 04:44:48;;;;;;;7.65;2.30;;;;;;;;;;5028093;28;20029;-65
2022/09/20 04:47:33;;;;;;;10.80;2.67;;;;;;;;;;4945863;28;20045;-63
2022/09/20 04:50:10;;;;;;;14.50;2.90;;;;;;;;;;4946782;28;20352;-65
2022/09/20 04:52:54;;;;;;;13.07;3.13;;;;;;;;;;4949663;28;20109;-64
2022/09/20 04:55:23;;;;;;;8.93;2.55;;;;;;;;;;4950361;28;20035;-64
2022/09/20 04:58:08;;;;;;;8.88;2.85;;;;;;;;;;4948130;28;20118;-65
2022/09/20 05:00:48;;;;;;;9.63;2.47;;;;;;;;;;4951383;28;20507;-65
2022/09/20 05:03:14;;;;;;;7.47;2.78;;;;;;;;;;4946793;28;20043;-62
2022/09/20 05:05:40;;;;;;;6.90;2.50;;;;;;;;;;4947955;28;20043;-62
2022/09/20 05:08:06;;;;;;;;;;;;;;;;;;4949453;28;20099;-62
2022/09/20 05:10:39;;;;;;;9.18;2.97;;;;;;;;;;4957348;28;19914;-62
2022/09/20 05:13:09;;;;;;;9.13;2.70;;;;;;;;;;4952243;28;20118;-62
2022/09/20 05:15:46;;;;;;;9.25;3.17;;;;;;;;;;4942548;28;20070;-63
2022/09/20 05:18:18;;;;;;;8.57;2.75;;;;;;;;;;4955135;28;20042;-63
2022/09/20 05:20:47;;;;;;;8.02;2.38;;;;;;;;;;4947946;28;20113;-63
2022/09/20 05:23:13;;;;;;;6.78;2.35;;;;;;;;;;4949085;28;20541;-63
2022/09/20 05:25:57;;;;;;;7.25;2.65;;;;;;;;;;5031575;28;20065;-62
2022/09/20 05:28:36;;;;;;;8.85;2.42;;;;;;;;;;5028896;28;20029;-62
2022/09/20 05:31:04;;;;;;;5.70;1.98;;;;;;;;;;5026644;28;20504;-61
2022/09/20 05:33:43;;;;;;;7.05;2.30;;;;;;;;;;5031870;28;20155;-62
2022/09/20 05:36:16;;;;;;;8.23;2.50;;;;;;;;;;5026351;28;20074;-63
2022/09/20 05:38:50;;;;;;;8.68;2.55;;;;;;;;;;5028424;28;20033;-62
2022/09/20 05:41:30;;;;;;;7.40;2.65;;;;;;;;;;5009532;28;20114;-62
2022/09/20 05:43:56;;;;;;;7.95;2.80;;;;;;;;;;5028487;28;20131;-63
2022/09/20 05:46:22;;;;;;;6.88;2.58;;;;;;;;;;5025336;28;20045;-63
2022/09/20 05:48:48;;;;;;;;;;;;;;;;;;5027387;28;20482;-63
2022/09/20 05:51:14;;;;;;;11.02;3.70;;;;;;;;;;5020117;28;19921;-62
2022/09/20 05:53:49;;;;;;;7.85;2.80;;;;;;;;;;5030262;28;20025;-64
2022/09/20 05:56:29;;;;;;;7.78;3.10;;;;;;;;;;5008836;28;20507;-62
2022/09/20 05:59:05;;;;;;;9.65;3.20;;;;;;;;;;5029646;28;20570;-62
2022/09/20 06:01:34;;;;;;;9.02;2.72;;;;;;;;;;5009933;28;20354;-62
2022/09/20 06:04:20;;;;;;;11.80;2.95;;;;;;;;;;5009293;28;20123;-62
2022/09/20 06:07:01;;;;;;;11.17;3.00;;;;;;;;;;5032127;28;20028;-62
2022/09/20 06:09:30;;;;;;;12.73;3.05;;;;;;;;;;5027068;28;20249;-62
2022/09/20 06:12:02;;;;;;;9.73;2.95;;;;;;;;;;5009853;28;20702;-62
2022/09/20 06:14:47;;;;;;;17.92;2.95;;;;;;;;;;5029509;28;20025;-62
2022/09/20 06:17:32;;;;;;;9.07;2.50;;;;;;;;;;5008410;28;20068;-62
2022/09/20 06:20:01;;;;;;;8.05;2.67;;;;;;;;;;5029201;28;20095;-62
2022/09/20 06:22:30;;;;;;;9.88;2.97;;;;;;;;;;5024400;28;20029;-62
2022/09/20 06:25:02;;;;;;;9.38;3.10;;;;;;;;;;5031971;28;20025;-64
2022/09/20 06:27:31;;;;;;;8.05;2.65;;;;;;;;;;5029381;28;20032;-63
2022/09/20 06:29:59;;;;;;;11.15;2.85;;;;;;;;;;5011211;28;20025;-63
2022/09/20 06:32:26;;;;;;;8.45;2.92;;;;;;;;;;5023421;28;20038;-62
2022/09/20 06:34:53;;;;;;;10.35;3.33;;;;;;;;;;5010852;28;20926;-62
2022/09/20 06:43:09;;;;;;;10.18;2.80;;;;;;;;;;5024682;28;20102;-64
2022/09/20 06:45:36;;;;;;;7.13;2.70;;;;;;;;;;5028561;28;20505;-62
2022/09/20 06:48:02;;;;;;;10.48;2.80;;;;;;;;;;5023585;28;20044;-63
2022/09/20 06:50:28;;;;;;;;;;;;;;;;;;5010655;28;20037;-62
2022/09/20 06:52:54;;;;;;;9.68;3.40;;;;;;;;;;5007279;28;20235;-62
2022/09/20 06:55:20;;;;;;;;;;;;;;;;;;5005329;28;20539;-62
2022/09/20 06:57:46;;;;;;;17.48;3.80;;;;;;;;;;5025989;28;19913;-62
2022/09/20 07:00:14;;;;;;;12.35;3.33;;;;;;;;;;5023493;28;20041;-62
2022/09/20 07:02:41;;;;;;;15.05;4.15;;;;;;;;;;5024893;28;20049;-62
2022/09/20 07:05:13;;;;;;;9.27;3.03;;;;;;;;;;5023401;28;20503;-62
2022/09/20 07:07:39;;;;;;;8.07;2.70;;;;;;;;;;5027672;28;20031;-62
2022/09/20 07:10:05;;;;;;;;;;;;;;;;;;5024119;28;20025;-63
2022/09/20 07:12:33;;;;;;;10.03;2.83;;;;;;;;;;5008782;28;19994;-63
2022/09/20 07:15:00;;;;;;;7.32;2.88;;;;;;;;;;5028011;28;20269;-62
2022/09/20 07:17:26;;;;;;;8.88;2.72;;;;;;;;;;5014059;28;20083;-62
2022/09/20 07:19:52;;;;;;;;;;;;;;;;;;5028957;28;20422;-62
2022/09/20 07:22:19;;;;;;;7.78;2.65;;;;;;;;;;5016223;28;19916;-64
2022/09/20 07:24:47;;;;;;;13.57;3.08;;;;;;;;;;5027353;28;20069;-64
2022/09/20 07:27:13;;;;;;;9.02;2.85;;;;;;;;;;5020625;28;20537;-64
2022/09/20 07:29:40;;;;;;;10.50;2.97;;;;;;;;;;5020452;28;20029;-63
2022/09/20 07:32:06;;;;;;;11.25;3.00;;;;;;;;;;5024361;28;20751;-62
2022/09/20 07:34:32;;;;;;;12.70;2.80;;;;;;;;;;5025218;28;20044;-62
2022/09/20 07:37:02;;;;;;;;;;;;;;;;;;5027002;28;20033;-63
2022/09/20 07:39:28;;;;;;;9.05;2.95;;;;;;;;;;5027144;28;19970;-62
2022/09/20 07:41:54;;;;;;;10.05;3.25;;;;;;;;;;5025638;28;20037;-63
2022/09/20 07:44:20;;;;;;;;;;;;;;;;;;5022767;28;20062;-62
2022/09/20 07:46:57;;;;;;;14.32;3.83;;;;;;;;;;5022851;28;19913;-63
2022/09/20 07:49:25;;;;;;;14.77;3.58;;;;;;;;;;5019772;28;20055;-63
2022/09/20 07:51:51;;;;;;;14.07;3.63;;;;;;;;;;5014290;28;20025;-63
2022/09/20 07:54:18;;;;;;;17.15;3.58;;;;;;;;;;5022005;28;20147;-63
2022/09/20 07:56:44;;;;;;;14.55;3.25;;;;;;;;;;5027453;28;20021;-63
2022/09/20 07:59:11;;;;;;;15.02;3.00;;;;;;;;;;5020755;28;20440;-63
2022/09/20 08:01:38;;;;;;;9.85;2.70;;;;;;;;;;5025855;28;20289;-63
2022/09/20 08:04:07;;;;;;;10.13;2.60;;;;;;;;;;5023390;28;20069;-63
2022/09/20 08:06:41;;;;;;;10.85;2.70;;;;;;;;;;5027009;28;20108;-63
2022/09/20 08:09:08;;;;;;;11.25;3.03;;;;;;;;;;5024638;28;20039;-63
2022/09/20 08:11:35;;;;;;;9.23;2.80;;;;;;;;;;5025619;28;20104;-63
2022/09/20 08:14:01;;;;;;;9.07;3.00;;;;;;;;;;5029835;28;20032;-63
2022/09/20 08:16:28;;;;;;;9.13;2.83;;;;;;;;;;5029056;28;20036;-63
2022/09/20 08:18:56;;;;;;;12.73;3.30;;;;;;;;;;5030119;28;20033;-63
2022/09/20 08:21:23;;;;;;;10.40;2.75;;;;;;;;;;5018629;28;20148;-63
2022/09/20 08:23:49;;;;;;;10.57;2.97;;;;;;;;;;5030825;28;20133;-63
2022/09/20 08:26:17;;;;;;;9.20;2.40;;;;;;;;;;5009550;28;20116;-64
2022/09/20 08:28:44;;;;;;;8.90;2.30;;;;;;;;;;5028754;28;20103;-63
2022/09/20 08:31:15;;;;;;;8.10;2.20;;;;;;;;;;5017763;28;20108;-63
2022/09/20 08:33:42;;;;;;;8.20;2.53;;;;;;;;;;5008760;28;20128;-62
2022/09/20 08:36:12;;;;;;;8.10;2.40;;;;;;;;;;5028579;28;20126;-63
2022/09/20 08:38:38;;;;;;;9.05;2.40;;;;;;;;;;5029240;28;20489;-62
2022/09/20 08:41:19;;;;;;;8.32;2.50;;;;;;;;;;5025077;28;20083;-62
2022/09/20 08:43:50;;;;;;;8.15;2.10;;;;;;;;;;5027832;28;20036;-62
2022/09/20 08:46:18;;;;;;;9.55;2.55;;;;;;;;;;5019688;28;20423;-62
2022/09/20 08:48:45;;;;;;;9.35;2.10;;;;;;;;;;5027076;28;20505;-63
2022/09/20 08:51:14;;;;;;;6.75;1.95;;;;;;;;;;5007300;28;20037;-63
2022/09/20 08:53:50;;;;;;;7.00;2.20;;;;;;;;;;5032719;28;20486;-63
2022/09/20 08:56:17;;;;;;;6.88;2.05;;;;;;;;;;5026066;28;20464;-65
2022/09/20 08:58:45;;;;;;;9.50;2.50;;;;;;;;;;5010701;28;20112;-63
2022/09/20 09:01:16;;;;;;;9.30;2.47;;;;;;;;;;5023412;28;20588;-63
2022/09/20 09:03:42;;;;;;;7.40;2.70;;;;;;;;;;5025144;28;20048;-63
2022/09/20 09:06:10;;;;;;;6.50;1.98;;;;;;;;;;5011983;28;20120;-63
2022/09/20 09:08:37;;;;;;;8.07;2.40;;;;;;;;;;5012992;28;20106;-63
2022/09/20 09:11:08;;;;;;;7.25;2.40;;;;;;;;;;5027520;28;20033;-63
2022/09/20 09:13:47;;;;;;;8.05;2.45;;;;;;;;;;5030110;28;20029;-63
2022/09/20 09:16:14;;;;;;;6.22;2.05;;;;;;;;;;5024332;28;20081;-63
2022/09/20 09:18:42;;;;;;;5.85;2.03;;;;;;;;;;5027838;28;20149;-63
2022/09/20 09:21:09;;;;;;;8.02;2.10;;;;;;;;;;5009970;28;20113;-63
2022/09/20 09:23:49;;;;;;;11.38;2.88;;;;;;;;;;5031112;28;20144;-63
2022/09/20 09:26:17;;;;;;;10.02;2.90;;;;;;;;;;5027901;28;20106;-63
2022/09/20 09:28:43;;;;;;;7.90;2.42;;;;;;;;;;5027971;28;20040;-63
2022/09/20 09:31:28;;;;;;;7.32;2.28;;;;;;;;;;5028109;28;20060;-64
2022/09/20 09:33:54;;;;;;;7.25;2.28;;;;;;;;;;5029143;28;20034;-64
2022/09/20 09:36:24;;;;;;;11.20;2.20;;;;;;;;;;5027568;28;20134;-64
2022/09/20 09:38:51;;;;;;;6.63;2.10;;;;;;;;;;5027504;28;20089;-64
2022/09/20 09:41:25;;;;;;;8.68;2.13;;;;;;;;;;5025255;28;20494;-63
2022/09/20 09:43:58;;;;;;;5.82;2.13;;;;;;;;;;5031327;28;20079;-64
2022/09/20 09:46:25;;;;;;;7.68;2.20;;;;;;;;;;5028927;28;20031;-66
2022/09/20 09:49:06;;;;;;;6.20;1.83;;;;;;;;;;5035470;28;20056;-64
2022/09/20 09:51:32;;;;;;;5.32;2.08;;;;;;;;;;5026982;28;20028;-64
2022/09/20 09:53:58;;;;;;;7.15;2.10;;;;;;;;;;5028106;28;20036;-65
2022/09/20 09:56:24;;;;;;;6.95;2.15;;;;;;;;;;5024655;28;20025;-65
2022/09/20 09:59:11;;;;;;;7.45;2.13;;;;;;;;;;5030918;28;20071;-65
2022/09/20 10:01:55;;;;;;;8.55;2.40;;;;;;;;;;5023930;28;20025;-64
2022/09/20 10:04:40;;;;;;;8.05;2.30;;;;;;;;;;5007581;28;20034;-65
2022/09/20 10:07:10;;;;;;;6.15;2.20;;;;;;;;;;5003217;28;20196;-64
2022/09/20 10:09:59;;;;;;;6.68;2.13;;;;;;;;;;5006795;28;20029;-64
2022/09/20 10:12:34;;;;;;;6.63;2.10;;;;;;;;;;5002683;28;20033;-64
2022/09/20 10:15:09;;;;;;;8.23;2.30;;;;;;;;;;5008702;28;20470;-64
2022/09/20 10:17:56;;;;;;;8.98;2.22;;;;;;;;;;5009140;28;20455;-65
2022/09/20 10:20:30;;;;;;;7.60;2.22;;;;;;;;;;4987324;28;20134;-64
2022/09/20 10:23:00;;;;;;;9.93;2.92;;;;;;;;;;4991415;28;20048;-65
2022/09/20 10:25:47;;;;;;;9.30;2.70;;;;;;;;;;4985977;28;20022;-65
2022/09/20 10:28:34;;;;;;;9.48;2.60;;;;;;;;;;5002899;28;20071;-65
2022/09/20 10:31:05;;;;;;;7.50;2.30;;;;;;;;;;5009157;28;20105;-63
2022/09/20 10:33:42;;;;;;;8.10;2.63;;;;;;;;;;4988993;28;20029;-63
2022/09/20 10:36:08;;;;;;;8.48;2.65;;;;;;;;;;5005001;28;20029;-63
2022/09/20 10:38:34;;;;;;;8.15;3.00;;;;;;;;;;4989295;28;20576;-63
2022/09/20 10:44:00;;;;;;;8.50;2.92;;;;;;;;;;5007579;28;21216;-63
2022/09/20 10:46:33;;;;;;;6.90;2.28;;;;;;;;;;5002811;28;20076;-64
2022/09/20 10:49:19;;;;;;;9.63;2.60;;;;;;;;;;5006187;28;20030;-64
2022/09/20 10:52:04;;;;;;;7.30;2.63;;;;;;;;;;5007641;28;20330;-63
2022/09/20 10:54:40;;;;;;;6.20;2.05;;;;;;;;;;4988421;28;20404;-64
2022/09/20 10:57:12;;;;;;;7.85;2.30;;;;;;;;;;5001877;28;20033;-63
2022/09/20 10:59:41;;;;;;;7.10;2.15;;;;;;;;;;5006481;28;20041;-64
2022/09/20 11:02:23;;;;;;;8.80;2.60;;;;;;;;;;5008861;28;20040;-64
2022/09/20 11:04:52;;;;;;;7.28;2.13;;;;;;;;;;5028240;28;20033;-65
2022/09/20 11:07:26;;;;;;;6.50;1.88;;;;;;;;;;5023564;28;20028;-64
2022/09/20 11:09:57;;;;;;;6.75;1.73;;;;;;;;;;5030095;28;20127;-63
2022/09/20 11:12:31;;;;;;;7.43;2.13;;;;;;;;;;5020204;28;20729;-64
2022/09/20 11:15:00;;;;;;;8.30;1.80;;;;;;;;;;5023546;28;20032;-63
2022/09/20 11:17:28;;;;;;;7.78;1.88;;;;;;;;;;5021234;28;20600;-64
2022/09/20 11:19:54;;;;;;;8.57;1.98;;;;;;;;;;5029546;28;20045;-64
2022/09/20 11:22:23;;;;;;;7.25;2.00;;;;;;;;;;5026807;28;20757;-63
2022/09/20 11:24:58;;;;;;;7.38;1.73;;;;;;;;;;5027577;28;20055;-63
2022/09/20 11:27:42;;;;;;;7.85;1.60;;;;;;;;;;5023440;28;20463;-63
2022/09/20 11:30:22;;;;;;;8.10;2.00;;;;;;;;;;5021605;28;20037;-64
2022/09/20 11:32:48;;;;;;;5.93;1.65;;;;;;;;;;5022815;28;20241;-64
2022/09/20 11:35:20;;;;;;;7.40;1.98;;;;;;;;;;5023963;28;20035;-64
2022/09/20 11:37:54;;;;;;;5.43;1.30;;;;;;;;;;5028492;28;20037;-63
2022/09/20 11:40:24;;;;;;;6.25;1.63;;;;;;;;;;5024826;28;20037;-63
2022/09/20 11:42:51;;;;;;;8.00;1.67;;;;;;;;;;5026893;28;20854;-65
2022/09/20 11:45:18;;;;;;;8.27;2.22;;;;;;;;;;5024831;28;20020;-64
2022/09/20 11:47:47;;;;;;;5.63;1.63;;;;;;;;;;5032834;28;20558;-65
2022/09/20 11:50:13;;;;;;;9.23;1.90;;;;;;;;;;5026108;28;20399;-65
2022/09/20 11:52:39;;;;;;;6.22;1.65;;;;;;;;;;5031807;28;20078;-66
2022/09/20 11:55:11;;;;;;;9.55;1.88;;;;;;;;;;5011963;28;20596;-66
2022/09/20 11:57:38;;;;;;;8.85;2.05;;;;;;;;;;5012795;28;20110;-66
2022/09/20 12:00:07;;;;;;;5.00;1.50;;;;;;;;;;5028745;28;20087;-67
2022/09/20 12:02:33;;;;;;;8.02;1.80;;;;;;;;;;5031841;28;20133;-67
2022/09/20 12:05:00;;;;;;;7.50;1.88;;;;;;;;;;5034135;28;20033;-67
2022/09/20 12:07:40;;;;;;;8.98;1.73;;;;;;;;;;5008491;28;20048;-67
2022/09/20 12:10:19;;;;;;;9.38;1.90;;;;;;;;;;5024434;28;20036;-66
2022/09/20 12:12:47;;;;;;;9.50;1.88;;;;;;;;;;5033200;28;20017;-66
2022/09/20 12:15:28;;;;;;;7.45;1.70;;;;;;;;;;5028661;28;20538;-66
2022/09/20 12:18:02;;;;;;;9.25;1.88;;;;;;;;;;5031317;28;20042;-66
2022/09/20 12:20:34;;;;;;;6.78;1.80;;;;;;;;;;5008584;28;20474;-66
2022/09/20 12:23:20;;;;;;;6.95;1.73;;;;;;;;;;5011402;28;20533;-66
2022/09/20 12:26:00;;;;;;;7.15;1.60;;;;;;;;;;5014915;28;20029;-66
2022/09/20 12:28:36;;;;;;;8.52;1.70;;;;;;;;;;5026498;28;20024;-66
2022/09/20 12:31:20;;;;;;;7.55;1.80;;;;;;;;;;5026568;28;20487;-67
2022/09/20 12:34:02;;;;;;;7.57;1.70;;;;;;;;;;5032171;28;20462;-68
2022/09/20 12:36:35;;;;;;;7.60;1.77;;;;;;;;;;5031812;28;20032;-67
2022/09/20 12:39:06;;;;;;;6.30;1.77;;;;;;;;;;5030988;28;20574;-66
2022/09/20 12:41:44;;;;;;;7.30;1.60;;;;;;;;;;5027683;28;20065;-66
2022/09/20 12:44:30;;;;;;;6.57;1.60;;;;;;;;;;5029741;28;20142;-65
2022/09/20 12:46:56;;;;;;;;;;;;;;;;;;5032291;28;20550;-66
2022/09/20 12:55:09;;;;;;;6.95;1.85;;;;;;;;;;5026858;28;20048;-67
2022/09/20 12:57:35;;;;;;;7.93;2.28;;;;;;;;;;5029099;28;20028;-66
2022/09/20 13:00:04;;;;;;;7.63;1.88;;;;;;;;;;5029570;28;20670;-69
2022/09/20 13:02:46;;;;;;;7.75;1.92;;;;;;;;;;5031173;28;20101;-67
2022/09/20 13:05:44;;;;;;;11.60;2.13;;;;;;;;;;5028602;28;20164;-66
2022/09/20 13:08:11;;;;;;;7.45;1.90;;;;;;;;;;4961038;28;20485;-67
2022/09/20 13:10:40;;;;;;;9.60;1.90;;;;;;;;;;4967204;28;20457;-69
2022/09/20 13:13:33;;;;;;;7.85;1.67;;;;;;;;;;4964639;28;20463;-68
2022/09/20 13:16:00;;;;;;;8.50;2.13;;;;;;;;;;4964078;28;20112;-68
2022/09/20 13:18:27;;;;;;;6.85;1.95;;;;;;;;;;4953022;28;20053;-68
2022/09/20 13:20:56;;;;;;;7.50;1.60;;;;;;;;;;4967491;28;20038;-67
2022/09/20 13:23:25;;;;;;;7.55;1.92;;;;;;;;;;4959334;28;24102;-69
2022/09/20 13:25:52;;;;;;;7.47;1.83;;;;;;;;;;4969939;28;20042;-68
2022/09/20 13:28:24;;;;;;;5.95;1.67;;;;;;;;;;4964091;28;20030;-68
2022/09/20 13:30:50;;;;;;;9.95;1.95;;;;;;;;;;4968084;28;20434;-68
2022/09/20 13:33:25;;;;;;;6.60;1.70;;;;;;;;;;4961368;28;20479;-68
2022/09/20 13:35:53;;;;;;;8.30;1.80;;;;;;;;;;4965813;28;20034;-68
2022/09/20 13:38:23;;;;;;;7.63;1.70;;;;;;;;;;4962673;28;20046;-65
2022/09/20 13:40:50;;;;;;;7.10;1.77;;;;;;;;;;4963820;28;20046;-65
2022/09/20 13:43:16;;;;;;;10.75;1.60;;;;;;;;;;4983145;28;20044;-65
2022/09/20 13:45:42;;;;;;;11.30;1.83;;;;;;;;;;5032428;28;20036;-65
2022/09/20 13:48:09;;;;;;;9.77;1.90;;;;;;;;;;5026777;28;20032;-65
2022/09/20 13:50:37;;;;;;;7.00;1.85;;;;;;;;;;5029110;28;20032;-66
2022/09/20 13:53:14;;;;;;;8.30;1.80;;;;;;;;;;5026566;28;20028;-65
2022/09/20 13:55:41;;;;;;;7.43;1.73;;;;;;;;;;5026893;28;20106;-65
2022/09/20 13:58:26;;;;;;;8.20;1.80;;;;;;;;;;5022623;28;20462;-68
2022/09/20 14:00:52;;;;;;;8.40;1.92;;;;;;;;;;5027738;28;20043;-65
2022/09/20 14:03:19;;;;;;;5.43;1.60;;;;;;;;;;5025246;28;20049;-65
2022/09/20 14:05:47;;;;;;;10.07;2.00;;;;;;;;;;5032324;28;20033;-65
2022/09/20 14:08:20;;;;;;;7.82;2.05;;;;;;;;;;5006919;28;20083;-65
2022/09/20 14:10:46;;;;;;;9.30;1.73;;;;;;;;;;5025839;28;20025;-65
2022/09/20 14:13:15;;;;;;;8.43;2.22;;;;;;;;;;5028665;28;20028;-64
2022/09/20 14:15:43;;;;;;;7.30;1.52;;;;;;;;;;5026942;28;20029;-65
2022/09/20 14:18:15;;;;;;;8.02;1.90;;;;;;;;;;5021567;28;20029;-65
2022/09/20 14:20:42;;;;;;;8.35;2.05;;;;;;;;;;5028120;28;20062;-64
2022/09/20 14:23:28;;;;;;;7.95;1.67;;;;;;;;;;5022970;28;20432;-65
2022/09/20 14:26:06;;;;;;;7.68;1.70;;;;;;;;;;5030487;28;20029;-65
2022/09/20 14:28:33;;;;;;;7.22;1.70;;;;;;;;;;5028601;28;20032;-65
2022/09/20 14:31:07;;;;;;;8.90;1.80;;;;;;;;;;5010641;28;20163;-65
2022/09/20 14:33:33;;;;;;;7.38;1.50;;;;;;;;;;5028555;28;20021;-65
2022/09/20 14:35:59;;;;;;;5.40;1.58;;;;;;;;;;5028956;28;20033;-65
2022/09/20 14:38:26;;;;;;;9.60;1.75;;;;;;;;;;5004675;28;20064;-65
2022/09/20 14:40:52;;;;;;;8.32;1.85;;;;;;;;;;5031790;28;20112;-65
2022/09/20 14:43:25;;;;;;;8.55;1.98;;;;;;;;;;5007611;28;20479;-65
2022/09/20 14:45:55;;;;;;;8.70;1.73;;;;;;;;;;5024665;28;20324;-66
2022/09/20 14:48:21;;;;;;;8.02;1.90;;;;;;;;;;5019474;28;20407;-65
2022/09/20 14:51:06;;;;;;;8.93;2.03;;;;;;;;;;5029625;28;20033;-65
2022/09/20 14:53:35;;;;;;;10.57;1.80;;;;;;;;;;5014937;28;20370;-67
2022/09/20 14:56:04;;;;;;;10.25;2.20;;;;;;;;;;5028581;28;20052;-65
2022/09/20 14:58:31;;;;;;;7.72;1.73;;;;;;;;;;5029942;28;20368;-65
2022/09/20 15:01:03;;;;;;;7.20;2.03;;;;;;;;;;5027756;28;20198;-65
2022/09/20 15:03:36;;;;;;;9.60;1.85;;;;;;;;;;5010235;28;20045;-66
2022/09/20 15:06:03;;;;;;;6.85;1.48;;;;;;;;;;5004930;28;20032;-65
2022/09/20 15:08:29;;;;;;;8.98;1.98;;;;;;;;;;5027933;28;20445;-66
2022/09/20 15:10:55;;;;;;;7.68;1.70;;;;;;;;;;5026041;28;20515;-66
2022/09/20 15:13:21;;;;;;;6.43;1.83;;;;;;;;;;5023651;28;20025;-65
2022/09/20 15:15:52;;;;;;;6.80;1.75;;;;;;;;;;5010020;28;20916;-66
2022/09/20 15:18:33;;;;;;;6.70;1.58;;;;;;;;;;5003076;28;20309;-66
2022/09/20 15:21:00;;;;;;;6.15;1.70;;;;;;;;;;5030269;28;20037;-66
2022/09/20 15:23:26;;;;;;;8.75;1.90;;;;;;;;;;5027027;28;20357;-66
2022/09/20 15:25:53;;;;;;;8.65;1.80;;;;;;;;;;5033090;28;20128;-66
2022/09/20 15:28:19;;;;;;;6.18;1.80;;;;;;;;;;5025628;28;20086;-65
2022/09/20 15:30:49;;;;;;;8.25;1.60;;;;;;;;;;5031761;28;20036;-66